sensor_id;sensor_type;location;lat;lon;timestamp;temperature;humidity
12815;DHT22;6472;52.328;13.070;2022-07-23T00:01:00;14.50;99.90
12815;DHT22;6472;52.328;13.070;2022-07-23T00:03:30;14.50;99.90
12815;DHT22;6472;52.328;13.070;2022-07-23T00:05:58;14.30;99.90
12815;DHT22;6472;52.328;13.070;2022-07-23T00:08:28;14.50;99.90
12815;DHT22;6472;52.328;13.070;2022-07-23T00:10:56;14.40;99.90
12815;DHT22;6472;52.328;13.070;2022-07-23T00:13:24;14.50;99.90
12815;DHT22;6472;52.328;13.070;2022-07-23T00:15:58;14.50;99.90
12815;DHT22;6472;52.328;13.070;2022-07-23T00:18:27;14.50;99.90
12815;DHT22;6472;52.328;13.070;2022-07-23T00:20:56;14.50;99.90
12815;DHT22;6472;52.328;13.070;2022-07-23T00:23:24;14.50;99.90
12815;DHT22;6472;52.328;13.070;2022-07-23T00:25:54;14.60;99.90
12815;DHT22;6472;52.328;13.070;2022-07-23T00:28:22;14.60;99.90
12815;DHT22;6472;52.328;13.070;2022-07-23T00:30:51;14.60;99.90
12815;DHT22;6472;52.328;13.070;2022-07-23T00:33:21;14.70;99.90
12815;DHT22;6472;52.328;13.070;2022-07-23T00:35:50;14.70;99.90
12815;DHT22;6472;52.328;13.070;2022-07-23T00:38:19;14.80;99.90
12815;DHT22;6472;52.328;13.070;2022-07-23T00:40:47;14.80;99.90
12815;DHT22;6472;52.328;13.070;2022-07-23T00:43:16;14.90;99.90
12815;DHT22;6472;52.328;13.070;2022-07-23T00:45:44;15.00;99.90
12815;DHT22;6472;52.328;13.070;2022-07-23T00:48:14;14.90;99.90
12815;DHT22;6472;52.328;13.070;2022-07-23T00:50:44;14.90;99.90
12815;DHT22;6472;52.328;13.070;2022-07-23T00:53:12;14.90;99.90
12815;DHT22;6472;52.328;13.070;2022-07-23T00:55:41;14.80;99.90
12815;DHT22;6472;52.328;13.070;2022-07-23T00:58:09;14.90;99.90
12815;DHT22;6472;52.328;13.070;2022-07-23T01:00:39;14.90;99.90
12815;DHT22;6472;52.328;13.070;2022-07-23T01:03:07;14.80;99.90
12815;DHT22;6472;52.328;13.070;2022-07-23T01:05:35;14.90;99.90
12815;DHT22;6472;52.328;13.070;2022-07-23T01:08:05;14.90;99.90
12815;DHT22;6472;52.328;13.070;2022-07-23T01:10:34;14.80;99.90
12815;DHT22;6472;52.328;13.070;2022-07-23T01:13:08;14.90;99.90
12815;DHT22;6472;52.328;13.070;2022-07-23T01:15:37;14.80;99.90
12815;DHT22;6472;52.328;13.070;2022-07-23T01:18:07;14.70;99.90
12815;DHT22;6472;52.328;13.070;2022-07-23T01:20:35;14.60;99.90
12815;DHT22;6472;52.328;13.070;2022-07-23T01:23:05;14.60;99.90
12815;DHT22;6472;52.328;13.070;2022-07-23T01:25:33;14.60;99.90
12815;DHT22;6472;52.328;13.070;2022-07-23T01:28:01;14.60;99.90
12815;DHT22;6472;52.328;13.070;2022-07-23T01:30:31;14.60;99.90
12815;DHT22;6472;52.328;13.070;2022-07-23T01:33:01;14.60;99.90
12815;DHT22;6472;52.328;13.070;2022-07-23T01:35:30;14.60;99.90
12815;DHT22;6472;52.328;13.070;2022-07-23T01:37:58;14.60;99.90
12815;DHT22;6472;52.328;13.070;2022-07-23T01:40:27;14.70;99.90
12815;DHT22;6472;52.328;13.070;2022-07-23T01:42:55;14.70;99.90
12815;DHT22;6472;52.328;13.070;2022-07-23T01:45:28;14.80;99.90
12815;DHT22;6472;52.328;13.070;2022-07-23T01:48:01;14.80;99.90
12815;DHT22;6472;52.328;13.070;2022-07-23T01:50:48;14.90;99.90
12815;DHT22;6472;52.328;13.070;2022-07-23T01:53:20;14.90;99.90
12815;DHT22;6472;52.328;13.070;2022-07-23T01:55:52;15.00;99.90
12815;DHT22;6472;52.328;13.070;2022-07-23T01:58:20;15.00;99.90
12815;DHT22;6472;52.328;13.070;2022-07-23T02:00:50;15.00;99.90
12815;DHT22;6472;52.328;13.070;2022-07-23T02:03:20;15.10;99.90
12815;DHT22;6472;52.328;13.070;2022-07-23T02:05:49;15.10;99.90
12815;DHT22;6472;52.328;13.070;2022-07-23T02:08:19;15.10;99.90
12815;DHT22;6472;52.328;13.070;2022-07-23T02:10:50;15.10;99.90
12815;DHT22;6472;52.328;13.070;2022-07-23T02:13:19;15.20;99.90
12815;DHT22;6472;52.328;13.070;2022-07-23T02:15:50;15.20;99.90
12815;DHT22;6472;52.328;13.070;2022-07-23T02:18:19;15.30;99.90
12815;DHT22;6472;52.328;13.070;2022-07-23T02:20:51;15.30;99.90
12815;DHT22;6472;52.328;13.070;2022-07-23T02:23:27;15.30;99.90
12815;DHT22;6472;52.328;13.070;2022-07-23T02:25:59;15.30;99.90
12815;DHT22;6472;52.328;13.070;2022-07-23T02:28:31;15.30;99.90
12815;DHT22;6472;52.328;13.070;2022-07-23T02:31:01;15.30;99.90
12815;DHT22;6472;52.328;13.070;2022-07-23T02:33:31;15.30;99.90
12815;DHT22;6472;52.328;13.070;2022-07-23T02:36:01;15.30;99.90
12815;DHT22;6472;52.328;13.070;2022-07-23T02:38:31;15.20;99.90
12815;DHT22;6472;52.328;13.070;2022-07-23T02:41:04;15.20;99.90
12815;DHT22;6472;52.328;13.070;2022-07-23T02:43:34;15.20;99.90
12815;DHT22;6472;52.328;13.070;2022-07-23T02:46:02;15.20;99.90
12815;DHT22;6472;52.328;13.070;2022-07-23T02:48:32;15.10;99.90
12815;DHT22;6472;52.328;13.070;2022-07-23T02:51:01;15.10;99.90
12815;DHT22;6472;52.328;13.070;2022-07-23T02:53:29;15.10;99.90
12815;DHT22;6472;52.328;13.070;2022-07-23T02:55:59;15.20;99.90
12815;DHT22;6472;52.328;13.070;2022-07-23T02:58:28;15.00;99.90
12815;DHT22;6472;52.328;13.070;2022-07-23T03:00:58;15.00;99.90
12815;DHT22;6472;52.328;13.070;2022-07-23T03:03:27;15.00;99.90
12815;DHT22;6472;52.328;13.070;2022-07-23T03:05:56;15.00;99.90
12815;DHT22;6472;52.328;13.070;2022-07-23T03:08:40;15.00;99.90
12815;DHT22;6472;52.328;13.070;2022-07-23T03:11:08;15.00;99.90
12815;DHT22;6472;52.328;13.070;2022-07-23T03:13:39;15.00;99.90
12815;DHT22;6472;52.328;13.070;2022-07-23T03:16:08;15.00;99.90
12815;DHT22;6472;52.328;13.070;2022-07-23T03:18:36;15.00;99.90
12815;DHT22;6472;52.328;13.070;2022-07-23T03:21:07;15.00;99.90
12815;DHT22;6472;52.328;13.070;2022-07-23T03:23:35;15.10;99.90
12815;DHT22;6472;52.328;13.070;2022-07-23T03:26:03;15.10;99.90
12815;DHT22;6472;52.328;13.070;2022-07-23T03:28:31;15.10;99.90
12815;DHT22;6472;52.328;13.070;2022-07-23T03:31:00;15.10;99.90
12815;DHT22;6472;52.328;13.070;2022-07-23T03:33:28;15.20;99.90
12815;DHT22;6472;52.328;13.070;2022-07-23T03:35:56;15.30;99.90
12815;DHT22;6472;52.328;13.070;2022-07-23T03:38:26;15.30;99.90
12815;DHT22;6472;52.328;13.070;2022-07-23T03:40:54;15.30;99.90
12815;DHT22;6472;52.328;13.070;2022-07-23T03:43:22;15.30;99.90
12815;DHT22;6472;52.328;13.070;2022-07-23T03:45:52;15.30;99.90
12815;DHT22;6472;52.328;13.070;2022-07-23T03:48:22;15.30;99.90
12815;DHT22;6472;52.328;13.070;2022-07-23T03:50:50;15.30;99.90
12815;DHT22;6472;52.328;13.070;2022-07-23T03:53:18;15.20;99.90
12815;DHT22;6472;52.328;13.070;2022-07-23T03:55:46;15.30;99.90
12815;DHT22;6472;52.328;13.070;2022-07-23T03:58:14;15.30;99.90
12815;DHT22;6472;52.328;13.070;2022-07-23T04:00:42;15.40;99.90
12815;DHT22;6472;52.328;13.070;2022-07-23T04:03:11;15.40;99.90
12815;DHT22;6472;52.328;13.070;2022-07-23T04:05:41;15.40;99.90
12815;DHT22;6472;52.328;13.070;2022-07-23T04:08:09;15.40;99.90
12815;DHT22;6472;52.328;13.070;2022-07-23T04:10:37;15.30;99.90
12815;DHT22;6472;52.328;13.070;2022-07-23T04:13:06;15.30;99.90
12815;DHT22;6472;52.328;13.070;2022-07-23T04:15:34;15.30;99.90
12815;DHT22;6472;52.328;13.070;2022-07-23T04:18:02;15.20;99.90
12815;DHT22;6472;52.328;13.070;2022-07-23T04:20:31;15.20;99.90
12815;DHT22;6472;52.328;13.070;2022-07-23T04:23:07;15.20;99.90
12815;DHT22;6472;52.328;13.070;2022-07-23T04:25:36;15.10;99.90
12815;DHT22;6472;52.328;13.070;2022-07-23T04:28:04;15.10;99.90
12815;DHT22;6472;52.328;13.070;2022-07-23T04:30:32;15.10;99.90
12815;DHT22;6472;52.328;13.070;2022-07-23T04:33:00;15.10;99.90
12815;DHT22;6472;52.328;13.070;2022-07-23T04:35:32;15.00;99.90
12815;DHT22;6472;52.328;13.070;2022-07-23T04:38:01;14.90;99.90
12815;DHT22;6472;52.328;13.070;2022-07-23T04:40:31;14.80;99.90
12815;DHT22;6472;52.328;13.070;2022-07-23T04:42:59;14.70;99.90
12815;DHT22;6472;52.328;13.070;2022-07-23T04:45:27;14.70;99.90
12815;DHT22;6472;52.328;13.070;2022-07-23T04:47:55;14.70;99.90
12815;DHT22;6472;52.328;13.070;2022-07-23T04:50:24;14.70;99.90
12815;DHT22;6472;52.328;13.070;2022-07-23T04:52:52;14.60;99.90
12815;DHT22;6472;52.328;13.070;2022-07-23T04:55:20;14.60;99.90
12815;DHT22;6472;52.328;13.070;2022-07-23T04:57:49;14.50;99.90
12815;DHT22;6472;52.328;13.070;2022-07-23T05:00:18;14.50;99.90
12815;DHT22;6472;52.328;13.070;2022-07-23T05:02:46;14.50;99.90
12815;DHT22;6472;52.328;13.070;2022-07-23T05:05:14;14.50;99.90
12815;DHT22;6472;52.328;13.070;2022-07-23T05:07:42;14.50;99.90
12815;DHT22;6472;52.328;13.070;2022-07-23T05:10:10;14.50;99.90
12815;DHT22;6472;52.328;13.070;2022-07-23T05:12:38;14.50;99.90
12815;DHT22;6472;52.328;13.070;2022-07-23T05:15:08;14.50;99.90
12815;DHT22;6472;52.328;13.070;2022-07-23T05:17:36;14.50;99.90
12815;DHT22;6472;52.328;13.070;2022-07-23T05:20:05;14.50;99.90
12815;DHT22;6472;52.328;13.070;2022-07-23T05:22:33;14.50;99.90
12815;DHT22;6472;52.328;13.070;2022-07-23T05:25:01;14.50;99.90
12815;DHT22;6472;52.328;13.070;2022-07-23T05:27:29;14.50;99.90
12815;DHT22;6472;52.328;13.070;2022-07-23T05:29:57;14.50;99.90
12815;DHT22;6472;52.328;13.070;2022-07-23T05:32:26;14.50;99.90
12815;DHT22;6472;52.328;13.070;2022-07-23T05:34:54;14.50;99.90
12815;DHT22;6472;52.328;13.070;2022-07-23T05:37:22;14.50;99.90
12815;DHT22;6472;52.328;13.070;2022-07-23T05:39:51;14.50;99.90
12815;DHT22;6472;52.328;13.070;2022-07-23T05:42:19;14.60;99.90
12815;DHT22;6472;52.328;13.070;2022-07-23T05:44:47;14.60;99.90
12815;DHT22;6472;52.328;13.070;2022-07-23T05:47:15;14.60;99.90
12815;DHT22;6472;52.328;13.070;2022-07-23T05:49:45;14.60;99.90
12815;DHT22;6472;52.328;13.070;2022-07-23T05:52:13;14.50;99.90
12815;DHT22;6472;52.328;13.070;2022-07-23T05:54:41;14.60;99.90
12815;DHT22;6472;52.328;13.070;2022-07-23T05:57:09;14.60;99.90
12815;DHT22;6472;52.328;13.070;2022-07-23T05:59:37;14.60;99.90
12815;DHT22;6472;52.328;13.070;2022-07-23T06:02:05;14.60;99.90
12815;DHT22;6472;52.328;13.070;2022-07-23T06:04:34;14.70;99.90
12815;DHT22;6472;52.328;13.070;2022-07-23T06:07:03;14.70;99.90
12815;DHT22;6472;52.328;13.070;2022-07-23T06:09:32;14.80;99.90
12815;DHT22;6472;52.328;13.070;2022-07-23T06:12:00;14.80;99.90
12815;DHT22;6472;52.328;13.070;2022-07-23T06:14:28;14.80;99.90
12815;DHT22;6472;52.328;13.070;2022-07-23T06:16:56;14.80;99.90
12815;DHT22;6472;52.328;13.070;2022-07-23T06:19:24;14.80;99.90
12815;DHT22;6472;52.328;13.070;2022-07-23T06:21:52;14.80;99.90
12815;DHT22;6472;52.328;13.070;2022-07-23T06:24:21;14.80;99.90
12815;DHT22;6472;52.328;13.070;2022-07-23T06:26:49;14.90;99.90
12815;DHT22;6472;52.328;13.070;2022-07-23T06:29:17;14.90;99.90
12815;DHT22;6472;52.328;13.070;2022-07-23T06:31:45;14.90;99.90
12815;DHT22;6472;52.328;13.070;2022-07-23T06:34:14;14.90;99.90
12815;DHT22;6472;52.328;13.070;2022-07-23T06:36:42;14.90;99.90
12815;DHT22;6472;52.328;13.070;2022-07-23T06:39:11;14.90;99.90
12815;DHT22;6472;52.328;13.070;2022-07-23T06:41:42;14.90;99.90
12815;DHT22;6472;52.328;13.070;2022-07-23T06:44:16;14.90;99.90
12815;DHT22;6472;52.328;13.070;2022-07-23T06:46:45;14.90;99.90
12815;DHT22;6472;52.328;13.070;2022-07-23T06:49:13;14.90;99.90
12815;DHT22;6472;52.328;13.070;2022-07-23T06:51:41;14.90;99.90
12815;DHT22;6472;52.328;13.070;2022-07-23T06:54:09;15.00;99.90
12815;DHT22;6472;52.328;13.070;2022-07-23T06:56:37;15.00;99.90
12815;DHT22;6472;52.328;13.070;2022-07-23T06:59:07;15.00;99.90
12815;DHT22;6472;52.328;13.070;2022-07-23T07:01:35;15.10;99.90
12815;DHT22;6472;52.328;13.070;2022-07-23T07:04:03;15.10;99.90
12815;DHT22;6472;52.328;13.070;2022-07-23T07:06:32;15.20;99.90
12815;DHT22;6472;52.328;13.070;2022-07-23T07:09:00;15.20;99.90
12815;DHT22;6472;52.328;13.070;2022-07-23T07:11:28;15.30;99.90
12815;DHT22;6472;52.328;13.070;2022-07-23T07:13:56;15.30;99.90
12815;DHT22;6472;52.328;13.070;2022-07-23T07:16:26;15.30;99.90
12815;DHT22;6472;52.328;13.070;2022-07-23T07:18:58;15.40;99.90
12815;DHT22;6472;52.328;13.070;2022-07-23T07:21:27;15.50;99.90
12815;DHT22;6472;52.328;13.070;2022-07-23T07:23:55;15.50;99.90
12815;DHT22;6472;52.328;13.070;2022-07-23T07:26:23;15.60;99.90
12815;DHT22;6472;52.328;13.070;2022-07-23T07:28:52;15.70;99.90
12815;DHT22;6472;52.328;13.070;2022-07-23T07:31:20;15.80;99.90
12815;DHT22;6472;52.328;13.070;2022-07-23T07:33:50;15.80;99.90
12815;DHT22;6472;52.328;13.070;2022-07-23T07:36:18;15.80;99.90
12815;DHT22;6472;52.328;13.070;2022-07-23T07:38:46;15.80;99.90
12815;DHT22;6472;52.328;13.070;2022-07-23T07:41:15;15.80;99.90
12815;DHT22;6472;52.328;13.070;2022-07-23T07:43:43;15.90;99.90
12815;DHT22;6472;52.328;13.070;2022-07-23T07:46:11;16.10;99.90
12815;DHT22;6472;52.328;13.070;2022-07-23T07:48:39;16.30;99.90
12815;DHT22;6472;52.328;13.070;2022-07-23T07:51:09;16.50;99.90
12815;DHT22;6472;52.328;13.070;2022-07-23T07:53:37;16.60;99.90
12815;DHT22;6472;52.328;13.070;2022-07-23T07:56:06;16.70;99.90
12815;DHT22;6472;52.328;13.070;2022-07-23T07:58:34;16.60;99.90
12815;DHT22;6472;52.328;13.070;2022-07-23T08:01:02;16.60;99.90
12815;DHT22;6472;52.328;13.070;2022-07-23T08:03:31;16.90;99.90
12815;DHT22;6472;52.328;13.070;2022-07-23T08:05:59;17.20;99.90
12815;DHT22;6472;52.328;13.070;2022-07-23T08:08:28;17.50;99.90
12815;DHT22;6472;52.328;13.070;2022-07-23T08:10:56;17.80;99.90
12815;DHT22;6472;52.328;13.070;2022-07-23T08:13:24;17.80;99.90
12815;DHT22;6472;52.328;13.070;2022-07-23T08:15:52;17.90;99.90
12815;DHT22;6472;52.328;13.070;2022-07-23T08:18:20;17.90;99.90
12815;DHT22;6472;52.328;13.070;2022-07-23T08:20:48;18.00;99.90
12815;DHT22;6472;52.328;13.070;2022-07-23T08:23:16;18.30;99.90
12815;DHT22;6472;52.328;13.070;2022-07-23T08:25:47;18.30;99.90
12815;DHT22;6472;52.328;13.070;2022-07-23T08:28:15;18.40;99.90
12815;DHT22;6472;52.328;13.070;2022-07-23T08:30:44;18.40;99.90
12815;DHT22;6472;52.328;13.070;2022-07-23T08:33:14;18.30;99.90
12815;DHT22;6472;52.328;13.070;2022-07-23T08:35:59;18.30;99.90
12815;DHT22;6472;52.328;13.070;2022-07-23T08:38:30;18.40;99.90
12815;DHT22;6472;52.328;13.070;2022-07-23T08:40:59;18.40;99.90
12815;DHT22;6472;52.328;13.070;2022-07-23T08:43:29;18.40;99.90
12815;DHT22;6472;52.328;13.070;2022-07-23T08:45:59;18.70;99.90
12815;DHT22;6472;52.328;13.070;2022-07-23T08:48:29;18.90;99.90
12815;DHT22;6472;52.328;13.070;2022-07-23T08:50:59;18.90;99.90
12815;DHT22;6472;52.328;13.070;2022-07-23T08:53:29;19.00;99.90
12815;DHT22;6472;52.328;13.070;2022-07-23T08:56:02;19.00;99.90
12815;DHT22;6472;52.328;13.070;2022-07-23T08:58:31;19.10;99.90
12815;DHT22;6472;52.328;13.070;2022-07-23T09:01:00;19.10;99.90
12815;DHT22;6472;52.328;13.070;2022-07-23T09:03:29;19.30;99.90
12815;DHT22;6472;52.328;13.070;2022-07-23T09:05:58;19.40;99.90
12815;DHT22;6472;52.328;13.070;2022-07-23T09:08:35;19.50;99.90
12815;DHT22;6472;52.328;13.070;2022-07-23T09:11:06;19.50;99.90
12815;DHT22;6472;52.328;13.070;2022-07-23T09:13:38;19.50;99.90
12815;DHT22;6472;52.328;13.070;2022-07-23T09:16:08;19.50;99.90
12815;DHT22;6472;52.328;13.070;2022-07-23T09:18:43;19.10;99.90
12815;DHT22;6472;52.328;13.070;2022-07-23T09:21:20;18.90;99.90
12815;DHT22;6472;52.328;13.070;2022-07-23T09:23:54;18.90;99.90
12815;DHT22;6472;52.328;13.070;2022-07-23T09:26:27;19.10;99.90
12815;DHT22;6472;52.328;13.070;2022-07-23T09:29:00;19.30;99.90
12815;DHT22;6472;52.328;13.070;2022-07-23T09:31:35;19.50;99.90
12815;DHT22;6472;52.328;13.070;2022-07-23T09:34:12;19.40;99.90
12815;DHT22;6472;52.328;13.070;2022-07-23T09:36:40;19.20;99.90
12815;DHT22;6472;52.328;13.070;2022-07-23T09:39:10;19.20;99.90
12815;DHT22;6472;52.328;13.070;2022-07-23T09:41:41;19.20;99.90
12815;DHT22;6472;52.328;13.070;2022-07-23T09:44:12;19.20;99.90
12815;DHT22;6472;52.328;13.070;2022-07-23T09:46:40;19.40;99.90
12815;DHT22;6472;52.328;13.070;2022-07-23T09:49:14;19.70;99.90
12815;DHT22;6472;52.328;13.070;2022-07-23T09:51:48;19.90;99.90
12815;DHT22;6472;52.328;13.070;2022-07-23T09:54:24;20.00;99.90
12815;DHT22;6472;52.328;13.070;2022-07-23T09:56:55;20.00;99.90
12815;DHT22;6472;52.328;13.070;2022-07-23T09:59:25;20.30;99.90
12815;DHT22;6472;52.328;13.070;2022-07-23T10:01:55;20.50;99.90
12815;DHT22;6472;52.328;13.070;2022-07-23T10:04:25;20.80;99.90
12815;DHT22;6472;52.328;13.070;2022-07-23T10:06:55;20.40;99.90
12815;DHT22;6472;52.328;13.070;2022-07-23T10:09:26;20.40;99.90
12815;DHT22;6472;52.328;13.070;2022-07-23T10:11:58;20.40;99.90
12815;DHT22;6472;52.328;13.070;2022-07-23T10:14:34;20.40;99.90
12815;DHT22;6472;52.328;13.070;2022-07-23T10:17:03;20.50;99.90
12815;DHT22;6472;52.328;13.070;2022-07-23T10:19:32;20.30;99.90
12815;DHT22;6472;52.328;13.070;2022-07-23T10:22:03;20.20;99.90
12815;DHT22;6472;52.328;13.070;2022-07-23T10:24:50;20.30;99.90
12815;DHT22;6472;52.328;13.070;2022-07-23T10:27:39;20.30;99.90
12815;DHT22;6472;52.328;13.070;2022-07-23T10:30:12;20.20;99.90
12815;DHT22;6472;52.328;13.070;2022-07-23T10:32:53;20.30;99.90
12815;DHT22;6472;52.328;13.070;2022-07-23T10:35:28;20.20;99.90
12815;DHT22;6472;52.328;13.070;2022-07-23T10:38:15;20.20;99.90
12815;DHT22;6472;52.328;13.070;2022-07-23T10:41:04;20.40;99.90
12815;DHT22;6472;52.328;13.070;2022-07-23T10:43:34;20.70;99.90
12815;DHT22;6472;52.328;13.070;2022-07-23T10:46:21;20.80;99.90
12815;DHT22;6472;52.328;13.070;2022-07-23T10:49:23;21.00;99.90
12815;DHT22;6472;52.328;13.070;2022-07-23T10:58:03;21.40;99.90
12815;DHT22;6472;52.328;13.070;2022-07-23T11:00:33;21.30;99.90
12815;DHT22;6472;52.328;13.070;2022-07-23T11:03:03;21.30;99.90
12815;DHT22;6472;52.328;13.070;2022-07-23T11:05:41;21.20;99.90
12815;DHT22;6472;52.328;13.070;2022-07-23T11:08:18;21.20;99.90
12815;DHT22;6472;52.328;13.070;2022-07-23T11:10:50;21.30;99.90
12815;DHT22;6472;52.328;13.070;2022-07-23T11:13:45;21.20;99.90
12815;DHT22;6472;52.328;13.070;2022-07-23T11:16:20;21.20;99.90
12815;DHT22;6472;52.328;13.070;2022-07-23T11:19:06;21.30;99.90
12815;DHT22;6472;52.328;13.070;2022-07-23T11:21:47;21.60;99.90
12815;DHT22;6472;52.328;13.070;2022-07-23T11:24:25;21.80;99.90
12815;DHT22;6472;52.328;13.070;2022-07-23T11:26:56;21.70;99.90
12815;DHT22;6472;52.328;13.070;2022-07-23T11:29:41;21.80;99.90
12815;DHT22;6472;52.328;13.070;2022-07-23T11:32:29;22.00;99.90
12815;DHT22;6472;52.328;13.070;2022-07-23T11:34:57;22.10;99.90
12815;DHT22;6472;52.328;13.070;2022-07-23T11:37:35;22.00;99.90
12815;DHT22;6472;52.328;13.070;2022-07-23T11:40:07;22.10;99.90
12815;DHT22;6472;52.328;13.070;2022-07-23T11:42:37;22.10;99.90
12815;DHT22;6472;52.328;13.070;2022-07-23T11:45:07;22.10;99.90
12815;DHT22;6472;52.328;13.070;2022-07-23T11:47:36;22.10;99.90
12815;DHT22;6472;52.328;13.070;2022-07-23T11:50:06;22.00;99.90
12815;DHT22;6472;52.328;13.070;2022-07-23T11:52:34;22.00;99.90
12815;DHT22;6472;52.328;13.070;2022-07-23T11:55:05;21.90;99.90
12815;DHT22;6472;52.328;13.070;2022-07-23T11:57:35;21.80;99.90
12815;DHT22;6472;52.328;13.070;2022-07-23T12:00:07;21.80;99.90
12815;DHT22;6472;52.328;13.070;2022-07-23T12:02:38;21.90;99.90
12815;DHT22;6472;52.328;13.070;2022-07-23T12:05:07;22.00;99.90
12815;DHT22;6472;52.328;13.070;2022-07-23T12:07:40;21.90;99.90
12815;DHT22;6472;52.328;13.070;2022-07-23T12:10:12;21.90;99.90
12815;DHT22;6472;52.328;13.070;2022-07-23T12:12:43;22.10;99.90
12815;DHT22;6472;52.328;13.070;2022-07-23T12:15:12;22.20;99.90
12815;DHT22;6472;52.328;13.070;2022-07-23T12:17:44;22.50;99.90
12815;DHT22;6472;52.328;13.070;2022-07-23T12:20:19;22.70;99.90
12815;DHT22;6472;52.328;13.070;2022-07-23T12:22:49;23.00;99.90
12815;DHT22;6472;52.328;13.070;2022-07-23T12:25:19;23.20;99.90
12815;DHT22;6472;52.328;13.070;2022-07-23T12:27:59;23.40;99.90
12815;DHT22;6472;52.328;13.070;2022-07-23T12:30:29;23.40;99.90
12815;DHT22;6472;52.328;13.070;2022-07-23T12:33:02;23.60;99.90
12815;DHT22;6472;52.328;13.070;2022-07-23T12:35:32;23.70;99.90
12815;DHT22;6472;52.328;13.070;2022-07-23T12:38:03;23.40;99.90
12815;DHT22;6472;52.328;13.070;2022-07-23T12:40:33;23.20;99.90
12815;DHT22;6472;52.328;13.070;2022-07-23T12:43:05;23.20;99.90
12815;DHT22;6472;52.328;13.070;2022-07-23T12:45:45;23.30;99.90
12815;DHT22;6472;52.328;13.070;2022-07-23T12:48:21;23.30;99.90
12815;DHT22;6472;52.328;13.070;2022-07-23T12:50:53;23.10;99.90
12815;DHT22;6472;52.328;13.070;2022-07-23T12:53:23;23.30;99.90
12815;DHT22;6472;52.328;13.070;2022-07-23T12:55:59;23.50;99.90
12815;DHT22;6472;52.328;13.070;2022-07-23T12:58:44;23.40;99.90
12815;DHT22;6472;52.328;13.070;2022-07-23T13:01:25;23.20;99.90
12815;DHT22;6472;52.328;13.070;2022-07-23T13:04:03;23.00;99.90
12815;DHT22;6472;52.328;13.070;2022-07-23T13:06:40;22.80;99.90
12815;DHT22;6472;52.328;13.070;2022-07-23T13:09:11;22.80;99.90
12815;DHT22;6472;52.328;13.070;2022-07-23T13:11:41;22.80;99.90
12815;DHT22;6472;52.328;13.070;2022-07-23T13:14:11;23.10;99.90
12815;DHT22;6472;52.328;13.070;2022-07-23T13:16:40;23.30;99.90
12815;DHT22;6472;52.328;13.070;2022-07-23T13:19:10;23.40;99.90
12815;DHT22;6472;52.328;13.070;2022-07-23T13:21:41;23.40;99.90
12815;DHT22;6472;52.328;13.070;2022-07-23T13:24:11;23.40;99.90
12815;DHT22;6472;52.328;13.070;2022-07-23T13:26:40;23.40;99.90
12815;DHT22;6472;52.328;13.070;2022-07-23T13:29:09;23.30;99.90
12815;DHT22;6472;52.328;13.070;2022-07-23T13:31:38;23.10;99.90
12815;DHT22;6472;52.328;13.070;2022-07-23T13:34:07;23.20;99.90
12815;DHT22;6472;52.328;13.070;2022-07-23T13:36:37;23.50;99.90
12815;DHT22;6472;52.328;13.070;2022-07-23T13:39:05;24.10;99.90
12815;DHT22;6472;52.328;13.070;2022-07-23T13:41:39;24.40;99.90
12815;DHT22;6472;52.328;13.070;2022-07-23T13:44:27;24.90;99.90
12815;DHT22;6472;52.328;13.070;2022-07-23T13:46:55;25.00;97.50
12815;DHT22;6472;52.328;13.070;2022-07-23T13:49:23;25.10;95.40
12815;DHT22;6472;52.328;13.070;2022-07-23T13:51:52;25.30;97.10
12815;DHT22;6472;52.328;13.070;2022-07-23T13:54:22;24.90;94.90
12815;DHT22;6472;52.328;13.070;2022-07-23T13:56:50;24.70;93.70
12815;DHT22;6472;52.328;13.070;2022-07-23T13:59:19;25.00;96.20
12815;DHT22;6472;52.328;13.070;2022-07-23T14:01:52;24.70;93.50
12815;DHT22;6472;52.328;13.070;2022-07-23T14:04:40;24.60;95.00
12815;DHT22;6472;52.328;13.070;2022-07-23T14:07:09;24.50;94.80
12815;DHT22;6472;52.328;13.070;2022-07-23T14:09:38;24.40;93.30
12815;DHT22;6472;52.328;13.070;2022-07-23T14:12:07;24.60;95.70
12815;DHT22;6472;52.328;13.070;2022-07-23T14:14:37;24.40;94.20
12815;DHT22;6472;52.328;13.070;2022-07-23T14:17:05;24.30;94.20
12815;DHT22;6472;52.328;13.070;2022-07-23T14:19:37;24.50;94.00
12815;DHT22;6472;52.328;13.070;2022-07-23T14:22:05;24.40;93.40
12815;DHT22;6472;52.328;13.070;2022-07-23T14:24:34;24.40;94.60
12815;DHT22;6472;52.328;13.070;2022-07-23T14:27:03;24.10;93.50
12815;DHT22;6472;52.328;13.070;2022-07-23T14:29:32;24.30;94.70
12815;DHT22;6472;52.328;13.070;2022-07-23T14:32:01;24.50;94.30
12815;DHT22;6472;52.328;13.070;2022-07-23T14:34:29;24.60;92.90
12815;DHT22;6472;52.328;13.070;2022-07-23T14:36:58;24.50;93.40
12815;DHT22;6472;52.328;13.070;2022-07-23T14:39:26;24.40;93.30
12815;DHT22;6472;52.328;13.070;2022-07-23T14:41:56;24.20;94.00
12815;DHT22;6472;52.328;13.070;2022-07-23T14:44:24;24.10;94.50
12815;DHT22;6472;52.328;13.070;2022-07-23T14:46:52;24.20;93.80
12815;DHT22;6472;52.328;13.070;2022-07-23T14:49:20;24.20;93.80
12815;DHT22;6472;52.328;13.070;2022-07-23T14:51:53;24.20;94.30
12815;DHT22;6472;52.328;13.070;2022-07-23T14:54:22;24.10;92.60
12815;DHT22;6472;52.328;13.070;2022-07-23T14:56:53;24.10;92.50
12815;DHT22;6472;52.328;13.070;2022-07-23T14:59:23;24.10;92.90
12815;DHT22;6472;52.328;13.070;2022-07-23T15:01:52;24.20;92.90
12815;DHT22;6472;52.328;13.070;2022-07-23T15:04:21;24.40;92.40
12815;DHT22;6472;52.328;13.070;2022-07-23T15:07:04;24.50;93.30
12815;DHT22;6472;52.328;13.070;2022-07-23T15:09:33;24.80;91.90
12815;DHT22;6472;52.328;13.070;2022-07-23T15:12:02;24.90;91.30
12815;DHT22;6472;52.328;13.070;2022-07-23T15:14:35;24.80;90.40
12815;DHT22;6472;52.328;13.070;2022-07-23T15:17:04;24.50;90.50
12815;DHT22;6472;52.328;13.070;2022-07-23T15:19:32;24.40;91.70
12815;DHT22;6472;52.328;13.070;2022-07-23T15:22:00;24.20;90.80
12815;DHT22;6472;52.328;13.070;2022-07-23T15:24:29;24.10;91.90
12815;DHT22;6472;52.328;13.070;2022-07-23T15:26:58;24.10;92.30
12815;DHT22;6472;52.328;13.070;2022-07-23T15:29:26;24.10;92.00
12815;DHT22;6472;52.328;13.070;2022-07-23T15:31:56;24.10;92.00
12815;DHT22;6472;52.328;13.070;2022-07-23T15:34:25;24.30;92.90
12815;DHT22;6472;52.328;13.070;2022-07-23T15:36:53;24.30;89.00
12815;DHT22;6472;52.328;13.070;2022-07-23T15:39:21;24.10;88.20
12815;DHT22;6472;52.328;13.070;2022-07-23T15:41:49;23.90;90.80
12815;DHT22;6472;52.328;13.070;2022-07-23T15:44:18;23.80;91.20
12815;DHT22;6472;52.328;13.070;2022-07-23T15:46:57;23.80;90.90
12815;DHT22;6472;52.328;13.070;2022-07-23T15:49:26;23.70;90.20
12815;DHT22;6472;52.328;13.070;2022-07-23T15:51:55;23.80;89.80
12815;DHT22;6472;52.328;13.070;2022-07-23T15:54:24;23.90;89.40
12815;DHT22;6472;52.328;13.070;2022-07-23T15:56:52;24.00;90.50